Time;durP1;ratioP1;P1;durP2;ratioP2;P2;SDS_P1;SDS_P2;PMS_P1;PMS_P2;Temp;Humidity;BMP_temperature;BMP_pressure;BME280_temperature;BME280_humidity;BME280_pressure;Samples;Min_cycle;Max_cycle;Signal;HPM_P1;HPM_P2
2022/06/23 00:01:02;;;;;;;20.50;16.40;;;21.10;99.90;;;;;;5058896;28;20449;-88
2022/06/23 00:03:34;;;;;;;20.10;16.90;;;21.10;99.90;;;;;;5060000;28;20451;-87
2022/06/23 00:06:05;;;;;;;22.97;18.23;;;21.10;99.90;;;;;;5073902;28;20452;-88
2022/06/23 00:08:42;;;;;;;21.43;16.80;;;21.10;99.90;;;;;;5061360;28;20484;-87
2022/06/23 00:11:20;;;;;;;17.20;15.60;;;21.20;99.90;;;;;;5072224;28;20477;-88
2022/06/23 00:13:47;;;;;;;22.87;15.47;;;21.10;99.90;;;;;;5070542;28;20441;-88
2022/06/23 00:16:24;;;;;;;17.30;15.37;;;21.00;99.90;;;;;;5054682;28;20474;-88
2022/06/23 00:18:51;;;;;;;18.53;14.80;;;20.90;99.90;;;;;;5054018;28;20445;-87
2022/06/23 00:21:22;;;;;;;19.50;15.00;;;20.90;99.90;;;;;;5053595;28;20502;-88
2022/06/23 00:23:53;;;;;;;17.70;15.03;;;20.80;99.90;;;;;;5055501;28;20826;-87
2022/06/23 00:26:23;;;;;;;14.40;12.90;;;20.70;99.90;;;;;;5058360;28;20862;-87
2022/06/23 00:28:53;;;;;;;14.83;13.00;;;20.70;99.90;;;;;;5062806;28;20484;-87
2022/06/23 00:31:27;;;;;;;17.40;13.00;;;20.60;99.90;;;;;;5064853;28;20513;-87
2022/06/23 00:33:55;;;;;;;14.43;12.63;;;20.50;99.90;;;;;;5053900;28;20514;-88
2022/06/23 00:36:31;;;;;;;16.43;14.50;;;20.50;99.90;;;;;;5053215;28;20535;-88
2022/06/23 00:38:58;;;;;;;21.10;15.97;;;20.40;99.90;;;;;;5053271;28;20448;-87
2022/06/23 00:41:32;;;;;;;16.03;14.43;;;20.40;99.90;;;;;;5053697;28;20453;-88
2022/06/23 00:44:05;;;;;;;22.13;14.27;;;20.30;99.90;;;;;;5053164;28;20444;-87
2022/06/23 00:46:39;;;;;;;16.53;13.33;;;20.30;99.90;;;;;;5052528;28;20555;-87
2022/06/23 00:49:16;;;;;;;18.57;14.40;;;20.30;99.90;;;;;;5052877;28;20897;-88
2022/06/23 00:51:47;;;;;;;15.17;12.60;;;20.30;99.90;;;;;;5053104;28;20559;-88
2022/06/23 00:54:20;;;;;;;14.77;12.33;;;20.30;99.90;;;;;;5053021;28;20449;-87
2022/06/23 00:56:52;;;;;;;14.73;12.63;;;20.30;99.90;;;;;;5054877;28;20467;-87
2022/06/23 00:59:24;;;;;;;17.60;13.37;;;20.30;99.90;;;;;;5059063;28;20452;-87
2022/06/23 01:01:56;;;;;;;15.10;13.53;;;20.20;99.90;;;;;;5077330;28;20500;-88
2022/06/23 01:04:31;;;;;;;18.63;14.67;;;20.20;99.90;;;;;;5065323;28;21010;-87
2022/06/23 01:07:04;;;;;;;15.33;13.80;;;20.30;99.90;;;;;;5072721;28;20498;-88
2022/06/23 01:09:37;;;;;;;15.80;13.60;;;20.20;99.90;;;;;;5062426;28;20440;-88
2022/06/23 01:12:15;;;;;;;15.70;12.80;;;20.10;99.90;;;;;;5055598;28;20444;-87
2022/06/23 01:14:47;;;;;;;20.10;14.43;;;20.10;99.90;;;;;;5052742;28;20436;-87
2022/06/23 01:17:20;;;;;;;16.63;14.10;;;20.00;99.90;;;;;;5053016;28;20825;-88
2022/06/23 01:20:10;;;;;;;14.63;12.40;;;19.90;99.90;;;;;;5052660;28;20451;-87
2022/06/23 01:22:52;;;;;;;16.80;14.43;;;19.90;99.90;;;;;;5052320;28;20993;-87
2022/06/23 01:25:33;;;;;;;17.87;12.40;;;20.00;99.90;;;;;;5052526;28;20805;-87
2022/06/23 01:28:04;;;;;;;15.30;13.70;;;20.00;99.90;;;;;;5052350;28;20545;-88
2022/06/23 01:30:36;;;;;;;19.40;13.83;;;20.00;99.90;;;;;;5052800;28;20452;-88
2022/06/23 01:33:13;;;;;;;20.70;14.53;;;20.00;99.90;;;;;;5062193;28;20444;-87
2022/06/23 01:35:45;;;;;;;22.00;14.10;;;20.00;99.90;;;;;;5067798;28;20445;-88
2022/06/23 01:38:16;;;;;;;22.57;13.57;;;19.90;99.90;;;;;;5052682;28;20441;-88
2022/06/23 01:40:48;;;;;;;14.90;13.47;;;19.90;99.90;;;;;;5052980;28;20441;-87
2022/06/23 01:43:20;;;;;;;17.90;13.77;;;19.90;99.90;;;;;;5052975;28;20448;-88
2022/06/23 01:45:54;;;;;;;14.67;12.47;;;19.80;99.90;;;;;;5056840;28;20448;-88
2022/06/23 01:51:06;;;;;;;18.83;12.77;;;19.80;99.90;;;;;;5050863;28;20436;-88
2022/06/23 01:53:34;;;;;;;13.90;12.50;;;19.80;99.90;;;;;;5052444;28;20440;-88
2022/06/23 01:56:15;;;;;;;17.20;11.73;;;19.70;99.90;;;;;;5051972;28;20449;-88
2022/06/23 01:58:54;;;;;;;14.43;12.37;;;19.70;99.90;;;;;;5052287;28;20476;-88
2022/06/23 02:01:27;;;;;;;16.00;13.40;;;19.70;99.90;;;;;;5052703;28;20490;-88
2022/06/23 02:04:02;;;;;;;18.90;12.57;;;19.70;99.90;;;;;;5053888;28;20421;-87
2022/06/23 02:06:32;;;;;;;20.23;14.17;;;19.70;99.90;;;;;;5055178;28;20832;-87
2022/06/23 02:09:07;;;;;;;15.40;12.03;;;19.70;99.90;;;;;;5075103;28;20487;-87
2022/06/23 02:11:39;;;;;;;14.10;12.80;;;19.70;99.90;;;;;;5077183;28;20440;-88
2022/06/23 02:14:17;;;;;;;21.37;13.90;;;19.70;99.90;;;;;;5058424;28;20965;-88
2022/06/23 02:16:48;;;;;;;15.70;13.40;;;19.70;99.90;;;;;;5053066;28;20812;-88
2022/06/23 02:19:21;;;;;;;17.13;14.13;;;19.80;99.90;;;;;;5052729;28;20510;-88
2022/06/23 02:21:53;;;;;;;17.13;15.40;;;19.70;99.90;;;;;;5052459;28;20444;-87
2022/06/23 02:24:26;;;;;;;16.00;14.13;;;19.70;99.90;;;;;;5062078;28;20448;-88
2022/06/23 02:27:03;;;;;;;18.40;13.93;;;19.60;99.90;;;;;;5070172;28;20468;-88
2022/06/23 02:29:35;;;;;;;13.47;12.07;;;19.60;99.90;;;;;;5056737;28;20456;-88
2022/06/23 02:32:06;;;;;;;13.60;11.47;;;19.50;99.90;;;;;;5055828;28;20853;-87
2022/06/23 02:34:37;;;;;;;16.53;13.80;;;19.50;99.90;;;;;;5057804;28;20516;-87
2022/06/23 02:37:28;;;;;;;15.30;11.13;;;19.50;99.90;;;;;;5059071;28;21003;-87
2022/06/23 02:39:58;;;;;;;17.80;11.67;;;19.50;99.90;;;;;;5054400;28;20445;-87
2022/06/23 02:42:28;;;;;;;12.00;10.37;;;19.50;99.90;;;;;;5052708;28;20436;-87
2022/06/23 02:45:31;;;;;;;16.13;11.90;;;19.50;99.90;;;;;;5054141;28;20437;-87
2022/06/23 02:48:14;;;;;;;13.37;11.73;;;19.50;99.90;;;;;;5068793;28;20495;-87
2022/06/23 02:51:03;;;;;;;16.47;12.93;;;19.40;99.90;;;;;;5071046;28;20453;-87
2022/06/23 02:53:58;;;;;;;15.93;11.30;;;19.50;99.90;;;;;;5073482;28;20433;-87
2022/06/23 02:56:48;;;;;;;15.97;11.93;;;19.50;99.90;;;;;;5042790;28;20503;-87
2022/06/23 02:59:19;;;;;;;17.77;14.70;;;19.40;99.90;;;;;;5057688;28;20417;-87
2022/06/23 03:01:53;;;;;;;20.67;13.00;;;19.50;99.90;;;;;;5056422;28;20964;-87
2022/06/23 03:04:24;;;;;;;16.50;14.67;;;19.40;99.90;;;;;;5054254;28;20436;-88
2022/06/23 03:06:59;;;;;;;16.33;14.00;;;19.40;99.90;;;;;;5056345;28;20559;-87
2022/06/23 03:09:33;;;;;;;16.80;13.70;;;19.40;99.90;;;;;;5055151;28;21108;-88
2022/06/23 03:12:08;;;;;;;19.40;14.30;;;19.40;99.90;;;;;;5057864;28;20441;-87
2022/06/23 03:14:43;;;;;;;19.77;14.43;;;19.40;99.90;;;;;;5059744;28;20487;-87
2022/06/23 03:17:20;;;;;;;19.80;16.00;;;19.40;99.90;;;;;;5057764;28;20964;-87
2022/06/23 03:19:54;;;;;;;17.23;14.63;;;19.40;99.90;;;;;;5054628;28;20445;-87
2022/06/23 03:22:27;;;;;;;21.33;15.73;;;19.50;99.90;;;;;;5052524;28;20440;-87
2022/06/23 03:25:02;;;;;;;16.13;14.60;;;19.50;99.90;;;;;;5054734;28;20444;-87
2022/06/23 03:27:33;;;;;;;17.83;13.77;;;19.40;99.90;;;;;;5054163;28;20456;-87
2022/06/23 03:30:05;;;;;;;20.00;12.00;;;19.20;99.90;;;;;;5052117;28;20447;-87
2022/06/23 03:32:40;;;;;;;21.10;10.77;;;19.20;99.90;;;;;;5055278;28;20445;-87
2022/06/23 03:35:14;;;;;;;12.60;11.00;;;19.30;99.90;;;;;;5071806;28;20420;-88
2022/06/23 03:37:47;;;;;;;16.53;12.20;;;19.30;99.90;;;;;;5070858;28;20465;-87
2022/06/23 03:43:13;;;;;;;13.23;10.37;;;19.30;99.90;;;;;;5068793;28;20419;-87
2022/06/23 03:45:46;;;;;;;19.70;10.47;;;19.30;99.90;;;;;;5056857;28;20448;-87
2022/06/23 03:48:20;;;;;;;13.10;10.27;;;19.30;99.90;;;;;;5055349;28;20575;-87
2022/06/23 03:50:49;;;;;;;17.27;11.93;;;19.40;99.90;;;;;;5062780;28;20456;-87
2022/06/23 03:53:23;;;;;;;17.83;12.03;;;19.40;99.90;;;;;;5073587;28;20440;-87
2022/06/23 03:55:53;;;;;;;17.70;10.70;;;19.50;99.90;;;;;;5061527;28;20437;-87
2022/06/23 03:58:24;;;;;;;14.07;12.27;;;19.40;99.90;;;;;;5057249;28;20879;-87
2022/06/23 04:00:59;;;;;;;17.80;14.17;;;19.40;99.90;;;;;;5055447;28;20456;-87
2022/06/23 04:03:30;;;;;;;16.03;14.33;;;19.40;99.90;;;;;;5054714;28;20459;-89
2022/06/23 04:06:19;;;;;;;17.33;15.43;;;19.40;99.90;;;;;;5055561;28;20865;-89
2022/06/23 04:08:55;;;;;;;17.13;14.90;;;19.60;99.90;;;;;;5075886;28;20472;-88
2022/06/23 04:14:12;;;;;;;16.20;14.50;;;19.60;99.90;;;;;;5059057;28;20428;-89
2022/06/23 04:16:40;;;;;;;21.40;16.07;;;19.70;99.90;;;;;;5063053;28;20460;-89
2022/06/23 04:19:17;;;;;;;17.37;15.57;;;19.60;99.90;;;;;;5057717;28;20815;-89
2022/06/23 04:21:48;;;;;;;21.03;16.33;;;19.70;99.90;;;;;;5054814;28;20461;-89
2022/06/23 04:24:19;;;;;;;22.40;17.60;;;19.70;99.90;;;;;;5053797;28;20440;-88
2022/06/23 04:26:50;;;;;;;22.20;16.77;;;19.70;99.90;;;;;;5053579;28;20469;-88
2022/06/23 04:29:24;;;;;;;18.43;16.73;;;19.70;99.90;;;;;;5053604;28;20492;-89
2022/06/23 04:31:54;;;;;;;21.37;16.30;;;19.70;99.90;;;;;;5054065;28;20444;-88
2022/06/23 04:34:28;;;;;;;19.90;17.90;;;19.70;99.90;;;;;;5053987;28;20444;-88
2022/06/23 04:36:55;;;;;;;18.43;16.40;;;19.70;99.90;;;;;;5054502;28;20980;-89
2022/06/23 04:39:30;;;;;;;23.57;21.10;;;19.70;99.90;;;;;;5056323;28;20452;-88
2022/06/23 04:42:01;;;;;;;20.20;17.57;;;19.70;99.90;;;;;;5063147;28;20462;-88
2022/06/23 04:44:30;;;;;;;18.13;14.53;;;19.70;99.90;;;;;;5055031;28;20963;-89
2022/06/23 04:47:01;;;;;;;21.40;16.90;;;19.70;99.90;;;;;;5063820;28;20476;-89
2022/06/23 04:49:36;;;;;;;21.10;18.83;;;19.70;99.90;;;;;;5054475;28;20507;-89
2022/06/23 04:52:12;;;;;;;20.43;17.00;;;19.70;99.90;;;;;;5069343;28;20512;-88
2022/06/23 04:54:46;;;;;;;20.33;18.00;;;19.80;99.90;;;;;;5075876;28;20420;-87
2022/06/23 04:57:16;;;;;;;19.43;17.30;;;19.80;99.90;;;;;;5073810;28;20469;-88
2022/06/23 04:59:46;;;;;;;19.10;16.73;;;19.80;99.90;;;;;;5073116;28;20535;-88
2022/06/23 05:02:25;;;;;;;18.30;16.47;;;19.80;99.90;;;;;;5074946;28;20441;-86
2022/06/23 05:05:01;;;;;;;21.80;17.07;;;19.80;99.90;;;;;;5075038;28;20428;-88
2022/06/23 05:07:32;;;;;;;20.13;18.03;;;19.80;99.90;;;;;;5060000;28;21094;-88
2022/06/23 05:10:03;;;;;;;21.50;19.60;;;19.80;99.90;;;;;;5055792;28;20484;-87
2022/06/23 05:12:35;;;;;;;22.40;19.60;;;19.90;99.90;;;;;;5056879;28;20452;-88
2022/06/23 05:15:11;;;;;;;22.47;20.13;;;20.00;99.90;;;;;;5055432;28;20461;-87
2022/06/23 05:17:47;;;;;;;24.43;21.83;;;20.10;99.90;;;;;;5055255;28;20471;-87
2022/06/23 05:20:21;;;;;;;22.73;20.40;;;20.20;99.90;;;;;;5054746;28;20479;-87
2022/06/23 05:22:49;;;;;;;22.30;20.20;;;20.30;99.90;;;;;;5054710;28;20864;-87
2022/06/23 05:25:33;;;;;;;26.00;20.77;;;20.70;99.90;;;;;;5055456;28;20440;-87
2022/06/23 05:28:05;;;;;;;20.60;17.03;;;21.20;99.90;;;;;;5055649;28;20471;-88
2022/06/23 05:30:35;;;;;;;18.50;16.57;;;21.60;99.90;;;;;;5055371;28;20468;-88
2022/06/23 05:33:06;;;;;;;17.97;16.07;;;22.20;99.90;;;;;;5054880;28;20482;-88
2022/06/23 05:35:42;;;;;;;16.03;14.47;;;22.70;99.90;;;;;;5054782;28;20448;-88
2022/06/23 05:38:21;;;;;;;16.13;14.43;;;23.10;99.90;;;;;;5055563;28;20495;-88
2022/06/23 05:40:56;;;;;;;17.70;14.40;;;23.80;99.90;;;;;;5057053;28;20449;-89
2022/06/23 05:43:49;;;;;;;15.30;13.70;;;24.10;99.90;;;;;;5056469;28;20489;-89
2022/06/23 05:46:20;;;;;;;16.90;14.00;;;24.40;99.90;;;;;;5056744;28;20471;-88
2022/06/23 05:48:56;;;;;;;18.53;12.70;;;24.80;99.90;;;;;;5055379;28;20931;-89
2022/06/23 05:51:33;;;;;;;17.37;14.10;;;25.10;99.90;;;;;;5055446;28;20902;-88
2022/06/23 05:54:10;;;;;;;15.60;13.63;;;25.50;99.90;;;;;;5055078;28;20448;-88
2022/06/23 05:56:44;;;;;;;13.80;12.60;;;26.00;99.90;;;;;;5062563;22;20488;-88
2022/06/23 05:59:14;;;;;;;13.73;11.07;;;26.10;99.90;;;;;;5072817;28;20440;-88
2022/06/23 06:02:20;;;;;;;10.77;9.97;;;26.60;99.90;;;;;;5081951;28;20425;-88
2022/06/23 06:04:52;;;;;;;13.40;11.00;;;26.90;99.90;;;;;;5081518;28;20410;-88
2022/06/23 06:07:22;;;;;;;10.70;9.70;;;27.30;99.90;;;;;;5079743;28;20465;-88
2022/06/23 06:09:50;;;;;;;12.27;9.47;;;27.40;99.90;;;;;;5071768;28;20978;-87
2022/06/23 06:12:20;;;;;;;10.87;9.37;;;27.40;99.90;;;;;;5060640;28;20454;-88
2022/06/23 06:14:51;;;;;;;11.60;9.10;;;27.40;99.90;;;;;;5060571;28;20445;-88
2022/06/23 06:17:20;;;;;;;11.00;8.20;;;27.60;99.90;;;;;;5063309;28;20474;-88
2022/06/23 06:19:49;;;;;;;12.60;8.60;;;27.60;99.10;;;;;;5064715;28;20432;-88
2022/06/23 06:22:29;;;;;;;12.10;7.80;;;27.90;99.20;;;;;;5060739;28;20454;-88
2022/06/23 06:24:59;;;;;;;10.00;7.17;;;28.40;97.50;;;;;;5057328;28;20864;-88
2022/06/23 06:27:26;;;;;;;9.70;7.00;;;28.70;96.30;;;;;;5056877;28;21186;-88
2022/06/23 06:29:53;;;;;;;10.90;7.67;;;29.00;95.20;;;;;;5056986;28;20489;-88
2022/06/23 06:32:34;;;;;;;10.40;7.87;;;29.40;95.10;;;;;;5057054;28;20448;-88
2022/06/23 06:35:13;;;;;;;8.10;5.73;;;29.80;93.70;;;;;;5056829;28;20453;-89
2022/06/23 06:37:45;;;;;;;10.87;7.07;;;29.40;93.10;;;;;;5057062;28;20473;-88
2022/06/23 06:40:14;;;;;;;13.97;7.50;;;28.50;94.90;;;;;;5057714;28;20458;-87
2022/06/23 06:42:46;;;;;;;11.17;7.17;;;28.00;95.50;;;;;;5057311;28;20449;-87
2022/06/23 06:45:16;;;;;;;7.73;6.73;;;28.30;95.40;;;;;;5069190;28;20558;-87
2022/06/23 06:47:44;;;;;;;11.60;7.00;;;28.40;95.20;;;;;;5057384;28;20495;-88
2022/06/23 06:50:26;;;;;;;11.47;6.90;;;28.90;94.40;;;;;;5057003;28;21018;-89
2022/06/23 06:52:55;;;;;;;7.00;5.97;;;29.00;93.60;;;;;;5069196;28;20440;-87
2022/06/23 06:55:26;;;;;;;11.70;6.20;;;29.40;93.70;;;;;;5077774;28;20440;-88
2022/06/23 06:58:02;;;;;;;10.57;6.30;;;29.90;92.30;;;;;;5076287;28;20477;-87
2022/06/23 07:00:35;;;;;;;7.40;5.90;;;29.70;91.40;;;;;;5071121;28;20442;-87
2022/06/23 07:03:06;;;;;;;10.10;6.40;;;29.50;92.00;;;;;;5073735;28;20448;-87
2022/06/23 07:05:39;;;;;;;10.17;6.43;;;30.20;91.60;;;;;;5073787;28;20548;-87
2022/06/23 07:08:12;;;;;;;10.20;5.60;;;30.80;90.10;;;;;;5068760;28;20464;-88
2022/06/23 07:10:46;;;;;;;6.60;5.27;;;31.20;88.60;;;;;;5059469;28;20471;-87
2022/06/23 07:13:20;;;;;;;8.97;6.27;;;31.70;85.70;;;;;;5062316;28;20445;-87
2022/06/23 07:15:52;;;;;;;8.20;5.63;;;31.10;86.00;;;;;;5063912;28;20652;-87
2022/06/23 07:18:24;;;;;;;6.83;5.70;;;30.60;86.90;;;;;;5059888;28;20456;-88
2022/06/23 07:21:01;;;;;;;8.63;5.03;;;31.30;86.30;;;;;;5075246;28;20963;-87
2022/06/23 07:23:35;;;;;;;11.50;5.90;;;32.00;82.20;;;;;;5065023;28;20521;-86
2022/06/23 07:26:17;;;;;;;9.00;5.10;;;32.20;81.20;;;;;;5067701;28;20487;-85
2022/06/23 07:28:49;;;;;;;6.73;5.10;;;32.50;78.90;;;;;;5080174;28;20465;-85
2022/06/23 07:31:20;;;;;;;11.60;6.10;;;32.50;78.20;;;;;;5064936;28;20450;-86
2022/06/23 07:33:52;;;;;;;8.83;5.17;;;32.60;77.80;;;;;;5057156;28;20451;-86
2022/06/23 07:36:26;;;;;;;12.70;5.70;;;33.20;74.70;;;;;;5059301;28;20473;-86
2022/06/23 07:38:59;;;;;;;11.47;6.47;;;32.90;75.50;;;;;;5056503;28;20821;-86
2022/06/23 07:41:33;;;;;;;8.60;5.20;;;32.80;74.90;;;;;;5056728;28;20442;-86
2022/06/23 07:44:04;;;;;;;9.53;5.37;;;32.50;75.00;;;;;;5067016;28;20454;-86
2022/06/23 07:46:33;;;;;;;11.80;6.10;;;32.30;73.50;;;;;;5062344;28;20525;-86
2022/06/23 07:49:00;;;;;;;9.83;5.20;;;32.90;73.20;;;;;;5062824;28;20483;-86
2022/06/23 07:51:27;;;;;;;8.63;4.50;;;33.70;70.20;;;;;;5062361;28;20519;-87
2022/06/23 07:53:56;;;;;;;7.23;4.50;;;34.00;69.00;;;;;;5062471;28;21003;-87
2022/06/23 07:56:26;;;;;;;8.80;4.87;;;34.40;66.80;;;;;;5081108;28;20471;-87
2022/06/23 07:58:55;;;;;;;7.60;4.70;;;34.40;64.20;;;;;;5067034;28;20489;-87
2022/06/23 08:01:28;;;;;;;7.80;4.57;;;34.50;64.00;;;;;;5061090;28;20493;-91
2022/06/23 08:03:59;;;;;;;7.60;4.80;;;34.60;63.60;;;;;;5061848;28;20448;-85
2022/06/23 08:06:28;;;;;;;9.70;5.03;;;33.90;65.20;;;;;;5060225;28;20837;-87
2022/06/23 08:09:01;;;;;;;7.17;5.23;;;33.70;65.20;;;;;;5061166;28;20450;-88
2022/06/23 08:14:19;;;;;;;8.47;5.07;;;33.70;65.10;;;;;;5067556;28;20495;-86
2022/06/23 08:16:50;;;;;;;9.17;4.57;;;34.40;63.20;;;;;;5063929;28;20460;-86
2022/06/23 08:19:28;;;;;;;9.67;4.67;;;34.40;62.40;;;;;;5061689;28;20821;-86
2022/06/23 08:22:00;;;;;;;9.17;5.17;;;34.80;62.30;;;;;;5059626;28;20478;-86
2022/06/23 08:24:28;;;;;;;9.03;5.07;;;34.70;61.40;;;;;;5059514;28;20442;-86
2022/06/23 08:26:58;;;;;;;11.20;5.30;;;34.10;62.70;;;;;;5062413;28;20467;-86
2022/06/23 08:29:30;;;;;;;8.77;4.60;;;33.90;64.40;;;;;;5081635;28;20455;-85
2022/06/23 08:31:59;;;;;;;8.17;5.10;;;34.50;63.30;;;;;;5069140;28;20489;-86
2022/06/23 08:34:26;;;;;;;7.90;5.30;;;35.50;61.00;;;;;;5072774;28;20444;-86
2022/06/23 08:36:57;;;;;;;8.77;4.70;;;34.40;62.30;;;;;;5065188;28;20469;-86
2022/06/23 08:39:37;;;;;;;8.67;5.10;;;35.00;60.90;;;;;;5065639;28;20447;-86
2022/06/23 08:42:10;;;;;;;7.90;4.57;;;34.70;60.30;;;;;;5074970;28;20419;-86
2022/06/23 08:44:42;;;;;;;5.53;4.40;;;35.60;59.20;;;;;;5068688;28;20450;-86
2022/06/23 08:47:18;;;;;;;5.80;4.20;;;36.40;57.80;;;;;;5064644;28;20495;-86
2022/06/23 08:49:52;;;;;;;8.63;5.57;;;36.30;57.30;;;;;;5059700;28;20494;-87
2022/06/23 08:52:27;;;;;;;6.43;3.70;;;36.70;56.60;;;;;;5062485;28;20531;-86
2022/06/23 08:55:02;;;;;;;5.93;4.30;;;38.10;53.80;;;;;;5061192;28;20474;-87
2022/06/23 08:57:43;;;;;;;8.43;3.80;;;36.90;54.10;;;;;;5057553;28;20507;-87
2022/06/23 09:00:16;;;;;;;6.53;4.00;;;36.90;53.20;;;;;;5056986;28;20440;-86
2022/06/23 09:02:51;;;;;;;6.97;4.33;;;37.30;52.10;;;;;;5063398;28;20874;-85
2022/06/23 09:05:25;;;;;;;8.17;4.13;;;37.70;53.10;;;;;;5061492;28;20450;-85
2022/06/23 09:08:02;;;;;;;6.33;4.00;;;37.80;52.00;;;;;;5062662;28;20479;-84
2022/06/23 09:10:38;;;;;;;8.77;5.40;;;37.10;52.70;;;;;;5081073;28;20493;-86
2022/06/23 09:13:33;;;;;;;7.60;4.17;;;37.10;53.60;;;;;;5064352;28;20463;-85
2022/06/23 09:16:19;;;;;;;7.33;4.33;;;38.20;52.20;;;;;;5065166;28;20475;-86
2022/06/23 09:19:16;;;;;;;8.90;4.20;;;39.10;50.10;;;;;;5059023;28;20460;-87
2022/06/23 09:22:09;;;;;;;8.10;4.47;;;37.20;51.40;;;;;;5054237;28;20453;-87
2022/06/23 09:25:06;;;;;;;8.83;4.50;;;37.50;50.80;;;;;;5048675;28;20467;-86
2022/06/23 09:27:57;;;;;;;7.50;5.10;;;37.20;51.90;;;;;;5071028;22;20585;-86
2022/06/23 09:30:52;;;;;;;5.60;3.97;;;36.80;52.90;;;;;;5068384;28;20494;-86
2022/06/23 09:34:05;;;;;;;4.97;3.50;;;36.30;54.20;;;;;;5067697;28;20449;-86
2022/06/23 09:37:25;;;;;;;;;;;;;;;;;;;;;
2022/06/23 09:44:11;;;;;;;12.10;5.83;;;35.10;57.00;;;;;;5007027;28;20852;-86
2022/06/23 09:50:20;;;;;;;7.93;4.10;;;37.80;51.20;;;;;;5063719;28;21019;-88
2022/06/23 09:53:16;;;;;;;8.43;4.57;;;38.90;50.00;;;;;;5064231;28;20473;-88
2022/06/23 09:56:00;;;;;;;6.20;4.50;;;38.50;50.00;;;;;;5087291;28;20815;-87
2022/06/23 09:59:02;;;;;;;8.67;4.20;;;38.80;49.60;;;;;;5069677;28;20645;-87
2022/06/23 10:01:43;;;;;;;4.90;3.63;;;38.50;48.90;;;;;;5065299;28;20451;-85
2022/06/23 10:04:25;;;;;;;7.90;4.23;;;39.80;48.00;;;;;;5062279;28;20443;-85
2022/06/23 10:07:08;;;;;;;5.30;3.87;;;39.90;47.30;;;;;;5063275;28;20463;-86
2022/06/23 10:09:49;;;;;;;9.00;5.27;;;40.50;46.80;;;;;;5073579;28;20462;-86
2022/06/23 10:12:54;;;;;;;5.27;4.17;;;38.20;48.90;;;;;;5066787;28;20439;-88
2022/06/23 10:15:34;;;;;;;9.60;3.90;;;38.40;50.50;;;;;;5048392;28;20967;-87
2022/06/23 10:18:35;;;;;;;4.70;4.30;;;37.70;48.90;;;;;;5065051;28;20443;-88
2022/06/23 10:21:14;;;;;;;6.40;4.00;;;38.20;49.60;;;;;;5064434;28;20439;-86
2022/06/23 10:23:58;;;;;;;8.60;4.43;;;39.40;48.00;;;;;;5062387;28;20518;-87
2022/06/23 10:26:51;;;;;;;7.83;4.63;;;40.90;45.70;;;;;;5081680;28;20485;-88
2022/06/23 10:29:49;;;;;;;5.97;4.07;;;40.30;45.30;;;;;;5073514;28;20444;-89
2022/06/23 10:32:35;;;;;;;7.00;4.53;;;39.70;45.70;;;;;;5064008;28;20945;-88
2022/06/23 10:35:19;;;;;;;7.00;4.30;;;39.00;46.80;;;;;;5064063;28;20447;-87
2022/06/23 10:38:02;;;;;;;6.97;4.03;;;40.50;45.20;;;;;;5064333;28;20464;-88
2022/06/23 10:40:50;;;;;;;6.13;3.80;;;41.10;44.30;;;;;;5067967;28;20443;-89
2022/06/23 10:43:47;;;;;;;8.23;4.17;;;41.30;43.00;;;;;;5067016;28;20452;-85
2022/06/23 10:46:21;;;;;;;7.30;3.73;;;39.10;45.60;;;;;;5070589;28;20479;-85
2022/06/23 10:49:30;;;;;;;8.53;4.23;;;37.70;46.70;;;;;;5068685;28;20451;-89
2022/06/23 10:52:25;;;;;;;8.10;4.17;;;37.90;46.60;;;;;;5057260;28;20489;-91
2022/06/23 10:55:27;;;;;;;6.30;4.30;;;37.60;47.40;;;;;;5086828;28;20412;-88
2022/06/23 10:58:18;;;;;;;8.00;3.90;;;37.60;47.20;;;;;;5064348;28;20530;-87
2022/06/23 11:00:58;;;;;;;9.60;3.47;;;38.70;45.40;;;;;;5059224;28;20453;-89
2022/06/23 11:03:58;;;;;;;10.30;4.43;;;39.30;43.40;;;;;;5081654;28;20476;-90
2022/06/23 11:06:58;;;;;;;7.83;4.00;;;40.80;43.20;;;;;;5079555;28;20465;-89
2022/06/23 11:09:42;;;;;;;9.97;4.13;;;38.90;41.50;;;;;;5083080;28;20440;-88
2022/06/23 11:12:23;;;;;;;10.90;4.30;;;38.70;44.00;;;;;;5089016;28;20487;-91
2022/06/23 11:15:03;;;;;;;5.83;3.73;;;39.50;43.80;;;;;;5084897;28;20435;-89
2022/06/23 11:17:38;;;;;;;11.17;4.20;;;39.80;44.30;;;;;;5084028;28;20468;-89
2022/06/23 11:20:20;;;;;;;8.47;3.87;;;39.30;42.70;;;;;;5069709;28;20436;-89
2022/06/23 11:22:56;;;;;;;9.70;3.57;;;37.70;43.50;;;;;;5066325;28;20449;-90
2022/06/23 11:25:38;;;;;;;7.63;4.27;;;37.80;44.10;;;;;;5070674;28;20451;-89
2022/06/23 11:28:15;;;;;;;7.20;3.40;;;39.00;42.10;;;;;;5072108;28;20475;-89
2022/06/23 11:30:54;;;;;;;7.43;3.80;;;39.60;41.50;;;;;;5061860;28;20514;-89
2022/06/23 11:33:53;;;;;;;7.63;3.93;;;40.40;39.70;;;;;;5065379;28;20479;-89
2022/06/23 11:36:53;;;;;;;8.67;3.43;;;41.40;38.50;;;;;;5060017;28;20457;-89
2022/06/23 11:39:54;;;;;;;6.50;3.63;;;42.20;37.60;;;;;;5065161;28;20499;-90
2022/06/23 11:42:46;;;;;;;9.20;3.80;;;41.90;35.30;;;;;;5058832;28;20447;-90
2022/06/23 11:45:29;;;;;;;4.90;3.30;;;40.90;37.40;;;;;;5063962;28;20445;-89
2022/06/23 11:48:05;;;;;;;7.33;3.43;;;42.20;36.40;;;;;;5057212;28;20461;-88
2022/06/23 11:50:41;;;;;;;3.70;2.63;;;40.50;36.60;;;;;;5072107;28;20481;-89
2022/06/23 11:53:28;;;;;;;7.13;3.97;;;39.60;37.90;;;;;;5075142;28;20439;-88
2022/06/23 11:55:58;;;;;;;7.13;3.50;;;38.60;40.00;;;;;;5061751;28;20444;-88
2022/06/23 11:58:43;;;;;;;5.33;3.37;;;37.40;41.30;;;;;;5072937;28;20445;-93
2022/06/23 12:01:15;;;;;;;7.10;3.57;;;37.00;42.20;;;;;;5064506;28;20453;-90
2022/06/23 12:04:02;;;;;;;6.63;3.47;;;38.40;41.20;;;;;;5058208;28;20438;-89
2022/06/23 12:06:38;;;;;;;10.87;3.37;;;39.90;39.90;;;;;;5057376;28;20510;-89
2022/06/23 12:09:20;;;;;;;9.00;3.20;;;40.40;37.20;;;;;;5065703;28;20455;-88
2022/06/23 12:11:47;;;;;;;6.93;3.10;;;39.90;38.00;;;;;;5062092;28;20506;-88
2022/06/23 12:14:15;;;;;;;4.03;2.33;;;39.00;38.40;;;;;;5060572;28;20986;-89
2022/06/23 12:16:53;;;;;;;11.17;3.40;;;39.90;37.90;;;;;;5058527;28;20513;-88
2022/06/23 12:19:26;;;;;;;6.83;3.63;;;39.90;37.30;;;;;;5058222;28;20860;-88
2022/06/23 12:22:00;;;;;;;6.30;2.90;;;40.10;38.30;;;;;;5063852;28;21010;-88
2022/06/23 12:24:33;;;;;;;6.60;3.73;;;41.30;36.50;;;;;;5061855;28;20453;-88
2022/06/23 12:27:07;;;;;;;7.20;3.70;;;39.80;37.60;;;;;;5059568;28;20474;-89
2022/06/23 12:29:44;;;;;;;7.60;3.80;;;39.80;38.80;;;;;;5066337;28;20455;-88
2022/06/23 12:32:19;;;;;;;7.20;3.20;;;40.00;38.50;;;;;;5060453;28;20480;-88
2022/06/23 12:34:56;;;;;;;11.10;3.50;;;39.30;38.90;;;;;;5075978;28;20416;-88
2022/06/23 12:37:33;;;;;;;7.70;3.63;;;39.70;39.10;;;;;;5078846;28;20837;-89
2022/06/23 12:40:05;;;;;;;4.43;3.20;;;41.10;36.50;;;;;;5074697;28;20451;-89
2022/06/23 12:42:35;;;;;;;11.70;3.90;;;40.50;38.00;;;;;;5058843;28;20432;-88
2022/06/23 12:45:45;;;;;;;5.27;2.70;;;40.70;37.70;;;;;;5063278;28;20928;-89
2022/06/23 12:48:44;;;;;;;9.10;3.63;;;40.80;36.70;;;;;;5057139;28;20441;-89
2022/06/23 12:51:22;;;;;;;5.60;3.53;;;41.20;36.60;;;;;;5054536;28;20495;-85
2022/06/23 12:54:18;;;;;;;7.97;3.50;;;40.20;36.70;;;;;;5065575;28;20451;-87
2022/06/23 12:57:01;;;;;;;7.20;3.97;;;39.00;38.90;;;;;;5052016;28;20483;-86
2022/06/23 12:59:34;;;;;;;9.70;3.70;;;38.10;39.50;;;;;;5060063;28;20454;-90
2022/06/23 13:02:13;;;;;;;9.83;3.97;;;37.60;41.00;;;;;;5062280;28;20515;-89
2022/06/23 13:04:53;;;;;;;7.33;3.80;;;38.50;39.80;;;;;;5065971;28;20441;-90
2022/06/23 13:07:28;;;;;;;5.10;3.60;;;38.50;39.40;;;;;;5064288;28;20455;-88
2022/06/23 13:10:05;;;;;;;8.43;3.40;;;39.30;38.40;;;;;;5054101;28;20455;-91
2022/06/23 13:12:37;;;;;;;5.67;3.07;;;39.90;38.20;;;;;;5061170;28;20553;-90
2022/06/23 13:15:09;;;;;;;9.27;3.83;;;40.10;38.30;;;;;;5056569;28;20440;-89
2022/06/23 13:17:44;;;;;;;8.40;3.20;;;39.80;38.70;;;;;;5062919;28;20475;-90
2022/06/23 13:20:23;;;;;;;5.50;3.40;;;38.90;39.00;;;;;;5056121;28;20462;-92
2022/06/23 13:22:55;;;;;;;5.70;3.10;;;38.40;40.20;;;;;;5056601;28;20575;-91
2022/06/23 13:25:27;;;;;;;5.87;3.57;;;39.40;39.40;;;;;;5067314;28;20444;-89
2022/06/23 13:27:57;;;;;;;7.60;3.90;;;39.30;39.40;;;;;;5059502;28;20466;-90
2022/06/23 13:30:29;;;;;;;8.73;3.93;;;40.80;38.10;;;;;;5057870;28;20536;-89
2022/06/23 13:33:04;;;;;;;8.13;4.63;;;41.70;37.10;;;;;;5064315;28;20472;-89
2022/06/23 13:35:40;;;;;;;8.37;4.07;;;41.40;36.90;;;;;;5071393;28;20449;-87
2022/06/23 13:38:18;;;;;;;8.60;4.27;;;40.70;38.20;;;;;;5073904;28;20497;-90
2022/06/23 13:40:50;;;;;;;6.87;3.60;;;40.20;39.40;;;;;;5082281;28;20423;-90
2022/06/23 13:43:31;;;;;;;11.00;4.40;;;40.90;38.70;;;;;;5071668;28;20463;-88
2022/06/23 13:46:04;;;;;;;11.67;4.80;;;41.10;37.80;;;;;;5066227;28;20443;-89